Time;durP1;ratioP1;P1;durP2;ratioP2;P2;SDS_P1;SDS_P2;PMS_P1;PMS_P2;Temp;Humidity;BMP_temperature;BMP_pressure;BME280_temperature;BME280_humidity;BME280_pressure;Samples;Min_cycle;Max_cycle;Signal;HPM_P1;HPM_P2
2021/07/28 00:00:24;;;;;;;19.70;7.07;;;;;;;25.43;59.11;100028.91;5054150;28;20045;-73
2021/07/28 00:02:52;;;;;;;20.42;7.53;;;;;;;25.38;59.24;100021.28;5053813;28;20399;-73
2021/07/28 00:05:21;;;;;;;16.20;7.20;;;;;;;25.31;59.27;100021.22;5053990;28;20053;-72
2021/07/28 00:07:49;;;;;;;16.35;7.70;;;;;;;25.20;59.98;100026.34;5053714;28;20095;-73
2021/07/28 00:10:17;;;;;;;15.23;7.28;;;;;;;24.88;61.56;100031.16;5053455;28;20045;-73
2021/07/28 00:12:49;;;;;;;15.68;7.28;;;;;;;24.79;62.03;100029.56;5053996;28;20037;-73
2021/07/28 00:15:17;;;;;;;19.83;7.40;;;;;;;24.65;62.80;100025.00;5053728;28;20493;-74
2021/07/28 00:17:48;;;;;;;19.13;7.00;;;;;;;24.69;62.73;100029.03;5053783;28;20446;-73
2021/07/28 00:20:23;;;;;;;18.80;7.00;;;;;;;24.67;62.79;100018.31;5053142;28;20044;-73
2021/07/28 00:25:37;;;;;;;18.48;7.13;;;;;;;24.62;62.93;100017.19;5053804;28;20057;-73
2021/07/28 00:28:07;;;;;;;14.35;6.82;;;;;;;24.65;63.16;100019.53;5053226;28;20502;-73
2021/07/28 00:30:35;;;;;;;18.85;7.07;;;;;;;24.69;62.90;100016.22;5053423;28;20041;-72
2021/07/28 00:33:04;;;;;;;20.95;7.22;;;;;;;24.76;62.47;100000.81;5052860;28;20037;-73
2021/07/28 00:35:32;;;;;;;17.08;7.53;;;;;;;24.80;62.50;99998.53;5053426;28;20060;-73
2021/07/28 00:38:05;;;;;;;17.65;7.00;;;;;;;24.84;62.51;100005.31;5053277;28;20123;-73
2021/07/28 00:40:33;;;;;;;19.60;6.97;;;;;;;24.77;62.57;100007.09;5053471;28;20462;-72
2021/07/28 00:43:14;;;;;;;17.50;6.95;;;;;;;24.71;62.83;99994.25;5053135;28;20079;-71
2021/07/28 00:45:43;;;;;;;18.95;7.20;;;;;;;24.70;62.76;100001.56;5053676;28;20047;-71
2021/07/28 00:48:13;;;;;;;15.93;7.13;;;;;;;24.67;62.82;100006.56;5053087;28;20064;-70
2021/07/28 00:50:45;;;;;;;16.75;6.78;;;;;;;24.53;63.50;100005.53;5053417;28;20148;-70
2021/07/28 00:53:18;;;;;;;16.52;7.10;;;;;;;24.48;63.97;100003.34;5052810;28;20617;-70
2021/07/28 00:55:48;;;;;;;13.88;7.10;;;;;;;24.46;64.11;99999.97;5053051;28;20045;-72
2021/07/28 00:58:18;;;;;;;17.90;7.32;;;;;;;24.38;64.34;99999.22;5052804;28;20041;-69
2021/07/28 01:00:49;;;;;;;25.00;8.00;;;;;;;24.16;65.12;100004.53;5052990;28;20049;-70
2021/07/28 01:03:17;;;;;;;20.05;7.70;;;;;;;24.05;65.61;99996.81;5052746;28;20527;-73
2021/07/28 01:05:46;;;;;;;20.83;7.32;;;;;;;23.95;65.88;99990.78;5052931;28;20045;-70
2021/07/28 01:08:15;;;;;;;20.48;7.95;;;;;;;23.84;66.13;100002.13;5051907;28;20488;-70
2021/07/28 01:10:45;;;;;;;18.92;8.38;;;;;;;23.78;66.40;99989.25;5052785;28;20049;-73
2021/07/28 01:13:26;;;;;;;16.00;8.10;;;;;;;23.76;66.55;99986.72;5052374;28;20095;-72
2021/07/28 01:15:58;;;;;;;21.13;6.82;;;;;;;23.80;66.35;99982.56;5052784;28;20055;-73
2021/07/28 01:18:27;;;;;;;20.38;7.57;;;;;;;23.84;66.24;99983.91;5052901;28;20072;-71
2021/07/28 01:20:55;;;;;;;19.55;7.50;;;;;;;23.88;65.96;99979.78;5052453;28;20049;-71
2021/07/28 01:23:26;;;;;;;19.15;7.10;;;;;;;23.88;65.92;99982.50;5052792;28;20148;-72
2021/07/28 01:25:56;;;;;;;14.60;6.82;;;;;;;23.84;66.20;99993.97;5052639;28;20462;-73
2021/07/28 01:28:27;;;;;;;23.83;7.53;;;;;;;23.75;66.56;99990.47;5052816;28;20037;-73
2021/07/28 01:31:00;;;;;;;15.45;7.10;;;;;;;23.70;66.57;99988.28;5052783;28;20040;-74
2021/07/28 01:33:32;;;;;;;18.80;7.28;;;;;;;23.74;66.63;99994.22;5052558;28;20052;-74
2021/07/28 01:36:02;;;;;;;18.60;6.70;;;;;;;23.72;66.49;99996.25;5052355;28;20116;-72
2021/07/28 01:38:35;;;;;;;15.38;7.22;;;;;;;23.73;66.62;99989.78;5053343;28;20041;-73
2021/07/28 01:41:04;;;;;;;23.15;7.25;;;;;;;23.69;66.76;99989.31;5052375;28;20055;-74
2021/07/28 01:43:34;;;;;;;20.35;7.88;;;;;;;23.68;66.67;99984.06;5052421;28;20041;-74
2021/07/28 01:46:04;;;;;;;15.55;7.28;;;;;;;23.60;67.03;99986.84;5051386;28;20076;-74
2021/07/28 01:48:34;;;;;;;21.42;7.00;;;;;;;23.58;67.04;99978.00;5053015;28;20128;-74
2021/07/28 01:51:03;;;;;;;18.13;7.68;;;;;;;23.70;66.27;99971.94;5052256;28;20420;-74
2021/07/28 01:53:33;;;;;;;15.13;7.25;;;;;;;23.92;65.61;99961.19;5052462;28;20049;-73
2021/07/28 01:56:02;;;;;;;19.02;6.90;;;;;;;23.96;65.13;99966.09;5052361;28;20052;-74
2021/07/28 01:58:31;;;;;;;20.77;7.78;;;;;;;24.01;64.80;99967.41;5052339;28;20037;-74
2021/07/28 02:00:59;;;;;;;14.23;6.55;;;;;;;23.95;64.93;99958.94;5052593;28;20052;-73
2021/07/28 02:03:28;;;;;;;16.60;7.40;;;;;;;24.01;64.83;99967.41;5052631;28;20115;-74
2021/07/28 02:05:56;;;;;;;20.45;7.15;;;;;;;23.92;65.11;99959.31;5052353;28;20482;-74
2021/07/28 02:08:24;;;;;;;15.52;7.05;;;;;;;23.81;65.52;99961.63;5051915;28;20068;-74
2021/07/28 02:10:54;;;;;;;18.40;7.47;;;;;;;23.75;65.68;99963.25;5052131;28;20055;-74
2021/07/28 02:13:23;;;;;;;15.10;6.90;;;;;;;23.70;65.78;99954.75;5052143;28;20045;-73
2021/07/28 02:15:51;;;;;;;18.00;6.78;;;;;;;23.70;65.86;99949.31;5052601;28;20055;-73
2021/07/28 02:18:20;;;;;;;22.08;8.02;;;;;;;23.65;65.97;99949.88;5052217;28;20045;-73
2021/07/28 02:20:48;;;;;;;21.90;7.07;;;;;;;23.59;66.32;99942.44;5054594;28;20055;-73
2021/07/28 02:23:16;;;;;;;17.17;7.75;;;;;;;23.57;66.46;99943.63;5055618;28;20037;-72
2021/07/28 02:25:45;;;;;;;21.80;7.63;;;;;;;23.45;66.81;99945.94;5055680;28;20045;-72
2021/07/28 02:28:14;;;;;;;24.00;7.55;;;;;;;23.24;67.84;99951.19;5054409;28;20049;-73
2021/07/28 02:30:42;;;;;;;23.90;7.72;;;;;;;23.11;68.37;99946.34;5054580;28;20074;-72
2021/07/28 02:33:10;;;;;;;19.30;7.32;;;;;;;23.02;69.04;99955.59;5055464;28;20047;-73
2021/07/28 02:35:39;;;;;;;19.73;7.05;;;;;;;22.97;69.71;99960.72;5055542;28;20069;-72
2021/07/28 02:38:07;;;;;;;16.90;7.75;;;;;;;22.95;69.73;99965.50;5055157;28;20048;-73
2021/07/28 02:40:36;;;;;;;20.58;7.45;;;;;;;22.93;70.09;99957.50;5055719;28;20059;-72
2021/07/28 02:43:04;;;;;;;23.00;7.53;;;;;;;22.90;70.20;99957.88;5055209;28;20123;-74
2021/07/28 02:45:36;;;;;;;28.17;7.88;;;;;;;22.92;70.20;99960.41;5055492;28;20048;-72
2021/07/28 02:48:05;;;;;;;17.70;7.40;;;;;;;22.94;70.04;99952.91;5055031;28;20049;-75
2021/07/28 02:50:34;;;;;;;18.10;7.30;;;;;;;22.95;69.91;99965.50;5055406;28;20411;-75
2021/07/28 02:53:03;;;;;;;18.08;7.10;;;;;;;22.96;70.17;99973.47;5055133;28;20075;-74
2021/07/28 02:55:31;;;;;;;19.27;6.93;;;;;;;22.96;69.98;99965.31;5055378;28;20143;-74
2021/07/28 02:57:59;;;;;;;20.02;8.02;;;;;;;22.98;69.88;99970.59;5055352;28;20466;-72
2021/07/28 03:00:29;;;;;;;20.33;8.07;;;;;;;22.97;69.88;99960.72;5054973;28;20068;-74
2021/07/28 03:02:58;;;;;;;18.83;7.35;;;;;;;23.00;69.61;99963.09;5055275;28;20045;-74
2021/07/28 03:05:26;;;;;;;24.75;7.90;;;;;;;23.03;69.43;99966.28;5054871;28;20045;-74
2021/07/28 03:07:54;;;;;;;20.77;6.93;;;;;;;23.09;69.21;99972.91;5054949;28;20404;-73
2021/07/28 03:10:22;;;;;;;23.15;7.25;;;;;;;23.13;68.77;99974.22;5054857;28;20090;-74
2021/07/28 03:12:51;;;;;;;18.88;7.15;;;;;;;23.19;68.57;99968.06;5055035;28;20041;-74
2021/07/28 03:15:20;;;;;;;21.02;7.18;;;;;;;23.17;68.60;99963.84;5054854;28;20049;-74
2021/07/28 03:17:48;;;;;;;19.30;7.70;;;;;;;23.14;68.92;99959.59;5055076;28;20056;-74
2021/07/28 03:20:20;;;;;;;18.55;7.65;;;;;;;23.05;69.72;99955.22;5054645;28;20072;-74
2021/07/28 03:22:48;;;;;;;21.45;8.05;;;;;;;23.04;69.95;99951.66;5054898;28;20051;-74
2021/07/28 03:25:16;;;;;;;16.95;7.53;;;;;;;23.04;70.10;99950.81;5054353;28;20056;-74
2021/07/28 03:27:45;;;;;;;19.15;7.78;;;;;;;23.09;70.25;99953.84;5054623;28;20416;-74
2021/07/28 03:30:13;;;;;;;19.92;8.10;;;;;;;23.12;69.86;99950.78;5054045;28;20437;-74
2021/07/28 03:32:42;;;;;;;20.77;8.40;;;;;;;23.18;69.33;99943.78;5053520;28;20443;-74
2021/07/28 03:35:10;;;;;;;18.00;7.15;;;;;;;23.26;68.62;99939.13;5054322;28;20037;-74
2021/07/28 03:37:40;;;;;;;21.83;7.15;;;;;;;23.35;68.18;99939.88;5054560;28;20076;-74
2021/07/28 03:40:09;;;;;;;20.40;6.93;;;;;;;23.39;68.16;99939.34;5054035;28;20048;-75
2021/07/28 03:42:38;;;;;;;19.23;7.72;;;;;;;23.44;67.84;99938.78;5054248;28;20044;-74
2021/07/28 03:45:07;;;;;;;18.35;6.63;;;;;;;23.49;67.44;99938.25;5054244;28;20068;-74
2021/07/28 03:47:36;;;;;;;20.13;7.55;;;;;;;23.52;67.25;99940.59;5054551;28;20128;-72
2021/07/28 03:50:07;;;;;;;20.00;7.18;;;;;;;23.60;66.67;99941.41;5054422;28;20041;-72
2021/07/28 03:52:35;;;;;;;21.55;6.75;;;;;;;23.63;66.56;99943.75;5054087;28;20450;-72
2021/07/28 03:55:06;;;;;;;23.52;7.70;;;;;;;23.63;66.73;99942.91;5053904;28;20399;-72
2021/07/28 03:57:35;;;;;;;17.43;7.47;;;;;;;23.78;66.34;99943.81;5054253;28;20041;-72
2021/07/28 04:00:05;;;;;;;19.38;6.75;;;;;;;23.88;65.87;99947.09;5054054;28;20048;-72
2021/07/28 04:02:34;;;;;;;22.75;7.65;;;;;;;24.02;65.68;99944.56;5052770;28;20081;-73
2021/07/28 04:05:03;;;;;;;22.17;8.05;;;;;;;24.33;63.71;99956.19;5053998;28;20124;-74
2021/07/28 04:07:31;;;;;;;21.65;7.40;;;;;;;24.83;62.10;99943.63;5053511;28;20098;-73
2021/07/28 04:10:00;;;;;;;21.67;7.65;;;;;;;25.31;60.33;99949.41;5054100;28;20049;-72
2021/07/28 04:12:30;;;;;;;21.63;7.07;;;;;;;25.68;58.90;99946.41;5052594;28;20399;-72
2021/07/28 04:14:58;;;;;;;24.90;8.55;;;;;;;26.01;57.63;99945.84;5054087;28;20041;-73
2021/07/28 04:17:26;;;;;;;24.60;7.35;;;;;;;26.45;55.84;99941.94;5053315;28;20384;-74
2021/07/28 04:19:55;;;;;;;17.27;7.53;;;;;;;26.67;55.22;99956.34;5053529;28;20515;-72
2021/07/28 04:22:23;;;;;;;26.75;7.53;;;;;;;27.12;53.38;99949.38;5053617;28;20063;-73
2021/07/28 04:24:52;;;;;;;21.13;7.72;;;;;;;27.45;52.64;99956.78;5053482;28;20041;-75
2021/07/28 04:27:20;;;;;;;27.88;8.75;;;;;;;27.72;52.12;99953.06;5053109;28;20597;-74
2021/07/28 04:29:51;;;;;;;25.25;7.95;;;;;;;27.85;51.12;99961.25;5053372;28;20095;-77
2021/07/28 04:32:19;;;;;;;24.70;7.65;;;;;;;27.88;51.04;99949.88;5053239;28;20048;-78
2021/07/28 04:34:48;;;;;;;21.80;6.97;;;;;;;28.09;50.66;99947.97;5053159;28;20114;-78
2021/07/28 04:37:16;;;;;;;25.00;8.27;;;;;;;28.18;50.19;99949.41;5053117;28;20139;-77
2021/07/28 04:39:44;;;;;;;21.55;7.32;;;;;;;28.25;50.04;99944.75;5053126;28;20075;-78
2021/07/28 04:42:12;;;;;;;23.85;7.32;;;;;;;28.46;49.62;99949.16;5052174;28;20377;-78
2021/07/28 04:44:41;;;;;;;20.17;7.35;;;;;;;28.83;48.86;99933.81;5052832;28;20043;-78
2021/07/28 04:47:10;;;;;;;25.65;7.60;;;;;;;29.07;48.01;99935.84;5052953;28;20123;-77
2021/07/28 04:49:39;;;;;;;23.30;6.85;;;;;;;28.92;48.02;99938.03;5052902;28;20404;-75
2021/07/28 04:52:09;;;;;;;17.42;7.20;;;;;;;29.16;46.97;99938.31;5052851;28;20362;-74
2021/07/28 04:54:37;;;;;;;18.17;5.72;;;;;;;29.36;46.71;99936.28;5053159;28;20048;-73
2021/07/28 04:57:06;;;;;;;19.73;6.40;;;;;;;29.41;46.27;99930.94;5052782;28;20055;-74
2021/07/28 04:59:34;;;;;;;21.38;7.18;;;;;;;29.55;45.71;99929.84;5052571;28;20052;-74
2021/07/28 05:02:02;;;;;;;18.35;6.38;;;;;;;29.77;44.74;99923.94;5053008;28;20404;-74
2021/07/28 05:04:32;;;;;;;17.27;6.80;;;;;;;29.92;44.49;99928.03;5052744;28;20412;-77
2021/07/28 05:07:00;;;;;;;18.60;6.30;;;;;;;30.24;44.07;99919.69;5052884;28;20045;-77
2021/07/28 05:09:29;;;;;;;21.25;6.82;;;;;;;30.14;44.04;99922.97;5052549;28;20048;-80
2021/07/28 05:11:59;;;;;;;21.13;6.70;;;;;;;30.14;44.03;99928.47;5053139;28;20068;-79
2021/07/28 05:14:28;;;;;;;18.65;6.78;;;;;;;30.40;43.28;99915.47;5052438;28;20139;-80
2021/07/28 05:16:56;;;;;;;18.58;6.78;;;;;;;30.67;42.91;99927.88;5052739;28;20076;-80
2021/07/28 05:19:25;;;;;;;17.05;6.40;;;;;;;30.96;42.36;99928.13;5052626;28;20103;-80
2021/07/28 05:21:54;;;;;;;20.73;6.53;;;;;;;31.35;41.51;99923.97;5052700;28;20084;-80
2021/07/28 05:24:23;;;;;;;17.85;6.22;;;;;;;31.31;41.15;99918.09;5052733;28;20408;-80
2021/07/28 05:26:51;;;;;;;18.40;6.13;;;;;;;30.59;42.45;99925.41;5052646;28;20132;-80
2021/07/28 05:29:19;;;;;;;16.98;6.20;;;;;;;29.32;45.49;99919.38;5052465;28;20045;-75
2021/07/28 05:31:47;;;;;;;22.20;6.78;;;;;;;28.56;47.72;99924.84;5052646;28;20037;-74
2021/07/28 05:34:15;;;;;;;22.58;6.55;;;;;;;28.27;48.62;99925.34;5052253;28;20052;-74
2021/07/28 05:36:44;;;;;;;16.17;6.28;;;;;;;27.97;49.47;99927.72;5052436;28;20037;-76
2021/07/28 05:39:13;;;;;;;24.30;7.10;;;;;;;28.26;48.69;99935.47;5052374;28;20041;-76
2021/07/28 05:41:41;;;;;;;19.88;6.72;;;;;;;28.79;47.43;99924.34;5052594;28;20488;-74
2021/07/28 05:44:09;;;;;;;21.95;6.25;;;;;;;28.47;48.46;99927.03;5052433;28;20075;-74
2021/07/28 05:46:37;;;;;;;26.40;6.53;;;;;;;28.54;48.14;99928.88;5052460;28;20055;-74
2021/07/28 05:49:06;;;;;;;22.95;7.15;;;;;;;28.95;46.98;99929.38;5052365;28;20049;-74
2021/07/28 05:51:34;;;;;;;22.52;6.35;;;;;;;29.62;45.67;99936.09;5052218;28;20037;-75
2021/07/28 05:54:02;;;;;;;24.20;6.75;;;;;;;29.70;45.13;99926.72;5053694;28;20507;-74
2021/07/28 05:56:31;;;;;;;16.23;6.28;;;;;;;29.43;45.70;99925.22;5056277;28;20377;-74
2021/07/28 05:59:00;;;;;;;22.20;6.63;;;;;;;28.83;47.28;99931.06;5056120;28;20045;-73
2021/07/28 06:01:28;;;;;;;17.83;6.47;;;;;;;28.42;48.21;99935.03;5056586;28;20056;-75
2021/07/28 06:03:56;;;;;;;22.50;6.18;;;;;;;28.13;48.69;99935.50;5056490;28;20041;-75
2021/07/28 06:06:26;;;;;;;18.00;6.40;;;;;;;27.93;49.82;99941.88;5056192;28;20047;-75
2021/07/28 06:08:54;;;;;;;19.50;6.43;;;;;;;28.20;49.16;99936.34;5056757;28;20048;-75
2021/07/28 06:11:23;;;;;;;17.92;6.70;;;;;;;28.05;48.69;99944.78;5056229;28;20040;-75
2021/07/28 06:13:53;;;;;;;17.80;6.60;;;;;;;27.83;49.96;99940.63;5056384;28;20499;-75
2021/07/28 06:16:21;;;;;;;14.48;5.63;;;;;;;28.27;49.03;99947.28;5055769;28;20131;-77
2021/07/28 06:18:49;;;;;;;23.85;6.43;;;;;;;28.65;47.50;99952.88;5056056;28;20116;-76
2021/07/28 06:21:18;;;;;;;18.40;6.45;;;;;;;29.23;46.97;99950.09;5055854;28;20479;-75
2021/07/28 06:23:48;;;;;;;13.68;6.03;;;;;;;30.99;43.45;99953.31;5056246;28;20132;-77
2021/07/28 06:26:16;;;;;;;18.48;6.50;;;;;;;32.11;40.68;99947.13;5055701;28;20071;-77
2021/07/28 06:28:44;;;;;;;20.00;6.68;;;;;;;31.81;40.43;99953.59;5055784;28;20083;-73
2021/07/28 06:31:14;;;;;;;18.35;6.30;;;;;;;30.99;42.42;99957.97;5055605;28;20052;-74
2021/07/28 06:33:42;;;;;;;16.60;6.55;;;;;;;31.13;42.32;99955.88;5055442;28;20082;-74
2021/07/28 06:36:10;;;;;;;20.05;6.22;;;;;;;31.60;40.98;99959.63;5054058;28;20049;-73
2021/07/28 06:38:38;;;;;;;17.95;6.15;;;;;;;31.09;42.00;99960.19;5055142;28;20403;-76
2021/07/28 06:41:06;;;;;;;16.20;6.25;;;;;;;30.15;43.93;99952.16;5055535;28;20047;-74
2021/07/28 06:43:35;;;;;;;16.38;6.72;;;;;;;29.69;45.13;99958.03;5055174;28;20480;-76
2021/07/28 06:46:03;;;;;;;17.25;6.45;;;;;;;30.03;44.88;99953.09;5055487;28;20047;-73
2021/07/28 06:48:33;;;;;;;18.00;6.63;;;;;;;30.62;43.95;99952.47;5054594;28;20071;-74
2021/07/28 06:51:01;;;;;;;20.75;6.93;;;;;;;31.43;41.80;99944.84;5055509;28;20045;-73
2021/07/28 06:53:29;;;;;;;20.40;6.03;;;;;;;31.56;41.24;99947.41;5055007;28;20041;-73
2021/07/28 06:55:57;;;;;;;17.42;6.28;;;;;;;32.49;39.98;99940.28;5054928;28;20119;-73
2021/07/28 06:58:25;;;;;;;18.23;6.18;;;;;;;33.35;38.64;99941.19;5054776;28;20450;-74
2021/07/28 07:00:56;;;;;;;17.38;6.10;;;;;;;33.14;38.52;99942.72;5055302;28;20041;-73
2021/07/28 07:03:25;;;;;;;19.42;6.13;;;;;;;33.63;38.63;99940.31;5054897;28;20063;-74
2021/07/28 07:05:54;;;;;;;18.15;6.35;;;;;;;33.33;38.64;99935.91;5054282;28;20044;-74
2021/07/28 07:08:22;;;;;;;16.65;5.97;;;;;;;32.77;40.05;99937.56;5055136;28;20095;-74
2021/07/28 07:10:53;;;;;;;18.02;9.50;;;;;;;32.60;40.18;99937.47;5054835;28;20045;-73
2021/07/28 07:13:21;;;;;;;18.60;6.65;;;;;;;32.34;40.53;99944.38;5054875;28;20045;-74
2021/07/28 07:15:50;;;;;;;23.67;7.03;;;;;;;31.83;41.64;99956.94;5054808;28;20041;-74
2021/07/28 07:18:18;;;;;;;17.70;6.78;;;;;;;31.27;42.81;99952.72;5054907;28;20124;-74
2021/07/28 07:20:46;;;;;;;22.42;7.13;;;;;;;31.31;43.78;99944.81;5054390;28;20057;-74
2021/07/28 07:23:16;;;;;;;18.98;6.95;;;;;;;31.24;43.54;99944.91;5054796;28;20048;-73
2021/07/28 07:25:44;;;;;;;17.85;6.45;;;;;;;31.02;43.74;99957.50;5054630;28;20043;-74
2021/07/28 07:28:13;;;;;;;22.83;7.35;;;;;;;31.14;43.36;99944.59;5054911;28;20055;-73
2021/07/28 07:30:43;;;;;;;16.60;6.20;;;;;;;31.32;43.60;99946.50;5054374;28;20056;-74
2021/07/28 07:35:57;;;;;;;20.85;6.90;;;;;;;31.50;44.29;99942.84;5054349;28;20033;-73
2021/07/28 07:38:26;;;;;;;19.98;6.93;;;;;;;31.44;43.51;99938.25;5054266;28;20120;-73
2021/07/28 07:40:55;;;;;;;20.60;6.38;;;;;;;31.13;44.74;99945.69;5054716;28;20052;-74
2021/07/28 07:43:23;;;;;;;20.48;7.45;;;;;;;30.96;44.63;99950.16;5054456;28;20516;-74
2021/07/28 07:45:55;;;;;;;19.05;6.57;;;;;;;31.04;45.46;99955.34;5054645;28;20045;-74
2021/07/28 07:48:23;;;;;;;26.13;7.47;;;;;;;31.38;45.25;99947.50;5052952;28;20041;-74
2021/07/28 07:50:52;;;;;;;17.00;6.75;;;;;;;31.69;44.50;99947.19;5054490;28;20553;-73
2021/07/28 07:53:20;;;;;;;22.83;6.95;;;;;;;31.78;44.42;99943.03;5054314;28;20056;-74
2021/07/28 07:55:50;;;;;;;24.60;7.15;;;;;;;32.04;44.07;99938.09;5053853;28;20094;-74
2021/07/28 07:58:18;;;;;;;21.95;7.25;;;;;;;32.27;42.83;99932.59;5054393;28;20415;-73
2021/07/28 08:00:46;;;;;;;22.75;7.30;;;;;;;32.26;42.83;99930.91;5053757;28;20041;-73
2021/07/28 08:03:15;;;;;;;18.50;6.63;;;;;;;32.33;43.38;99930.81;5054447;28;20056;-73
2021/07/28 08:05:43;;;;;;;23.75;7.38;;;;;;;32.42;43.21;99935.72;5053871;28;20488;-74
2021/07/28 08:08:12;;;;;;;21.05;6.85;;;;;;;32.51;42.38;99936.16;5053969;28;20040;-74
2021/07/28 08:10:40;;;;;;;21.30;6.65;;;;;;;32.45;42.89;99929.72;5053744;28;20051;-74
2021/07/28 08:13:12;;;;;;;18.45;6.60;;;;;;;32.36;43.11;99933.09;5053847;28;20036;-74
2021/07/28 08:15:40;;;;;;;20.20;6.65;;;;;;;32.43;43.26;99934.66;5053532;28;20049;-74
2021/07/28 08:18:09;;;;;;;14.68;6.30;;;;;;;32.51;42.38;99933.41;5053654;28;20063;-74
2021/07/28 08:20:38;;;;;;;20.00;6.95;;;;;;;32.47;42.30;99929.47;5053544;28;20131;-74
2021/07/28 08:23:06;;;;;;;16.77;6.63;;;;;;;32.30;42.74;99926.63;5053786;28;20403;-74
2021/07/28 08:25:34;;;;;;;16.08;6.28;;;;;;;32.36;42.55;99933.94;5053484;28;20443;-74
2021/07/28 08:28:03;;;;;;;20.38;6.95;;;;;;;32.36;42.24;99933.94;5053483;28;20044;-74
2021/07/28 08:30:32;;;;;;;21.08;6.97;;;;;;;32.36;42.28;99930.34;5052429;28;20404;-74
2021/07/28 08:33:00;;;;;;;17.13;6.60;;;;;;;32.60;42.04;99920.91;5053513;28;20037;-74
2021/07/28 08:35:29;;;;;;;19.63;6.93;;;;;;;32.91;42.07;99929.84;5053301;28;20450;-75
2021/07/28 08:37:57;;;;;;;19.15;7.45;;;;;;;32.69;41.98;99929.66;5053207;28;20044;-74
2021/07/28 08:40:25;;;;;;;19.63;6.82;;;;;;;32.59;42.21;99926.69;5053301;28;20407;-74
2021/07/28 08:42:56;;;;;;;17.95;6.47;;;;;;;32.66;42.25;99919.09;5053038;28;20048;-74
2021/07/28 08:45:24;;;;;;;18.08;6.95;;;;;;;32.51;41.82;99916.00;5053498;28;20045;-74
2021/07/28 08:47:55;;;;;;;20.90;7.40;;;;;;;32.45;41.87;99924.19;5051587;28;20411;-74
2021/07/28 08:50:27;;;;;;;24.33;7.05;;;;;;;32.44;42.33;99921.69;5053226;28;20037;-74
2021/07/28 08:52:56;;;;;;;;;;;;;;;32.45;41.77;99918.69;5053544;28;20076;-74
2021/07/28 08:55:24;;;;;;;20.38;6.07;;;;;;;32.40;41.65;99914.97;5053190;28;19925;-74
2021/07/28 08:57:53;;;;;;;19.50;6.68;;;;;;;32.38;41.63;99915.22;5052845;28;20045;-74
2021/07/28 09:00:21;;;;;;;17.30;6.70;;;;;;;32.41;41.13;99909.19;5052873;28;20041;-74
2021/07/28 09:02:50;;;;;;;17.23;6.38;;;;;;;32.32;42.39;99907.06;5052875;28;20507;-74
2021/07/28 09:05:19;;;;;;;17.23;6.80;;;;;;;32.35;42.26;99901.91;5052981;28;20544;-74
2021/07/28 09:07:54;;;;;;;18.98;6.50;;;;;;;32.39;41.33;99903.09;5052589;28;20132;-74
2021/07/28 09:10:22;;;;;;;16.77;6.38;;;;;;;32.38;40.89;99898.66;5053175;28;20391;-74
2021/07/28 09:12:55;;;;;;;17.02;6.43;;;;;;;32.35;41.22;99896.38;5052771;28;20491;-74
2021/07/28 09:15:37;;;;;;;16.42;6.43;;;;;;;32.44;40.98;99905.13;5052842;28;20063;-74
2021/07/28 09:18:32;;;;;;;18.80;6.55;;;;;;;32.37;41.04;99896.13;5052818;28;20045;-74
2021/07/28 09:21:03;;;;;;;13.90;6.30;;;;;;;32.46;40.38;99897.44;5052999;28;20399;-74
2021/07/28 09:23:37;;;;;;;17.30;6.15;;;;;;;32.37;39.65;99894.22;5052423;28;20045;-75
2021/07/28 09:26:28;;;;;;;13.85;6.13;;;;;;;32.43;40.27;99893.25;5052884;28;20484;-74
2021/07/28 09:29:04;;;;;;;18.23;6.78;;;;;;;32.54;40.55;99887.94;5055540;28;20041;-74
2021/07/28 09:31:35;;;;;;;20.60;6.78;;;;;;;32.67;39.79;99885.72;5059296;28;20037;-74
2021/07/28 09:34:10;;;;;;;17.52;6.47;;;;;;;32.64;39.13;99888.97;5059476;28;20043;-74
2021/07/28 09:36:40;;;;;;;13.02;6.10;;;;;;;32.59;39.47;99888.88;5059039;28;20123;-74
2021/07/28 09:39:10;;;;;;;14.82;6.07;;;;;;;32.58;38.81;99872.56;5059631;28;20067;-74
2021/07/28 09:41:48;;;;;;;15.43;5.95;;;;;;;32.62;38.95;99880.13;5059447;28;20072;-73
2021/07/28 09:44:25;;;;;;;15.32;5.97;;;;;;;32.81;38.68;99875.22;5059228;28;20041;-75
2021/07/28 09:47:06;;;;;;;19.25;6.40;;;;;;;32.84;38.59;99879.44;5059007;28;20037;-74
2021/07/28 09:49:35;;;;;;;14.30;5.80;;;;;;;32.81;38.94;99877.13;5059274;28;20099;-74
2021/07/28 09:52:25;;;;;;;14.48;6.55;;;;;;;32.93;38.78;99875.22;5059087;28;20510;-74
2021/07/28 09:54:56;;;;;;;19.15;5.80;;;;;;;33.07;37.17;99870.19;5059074;28;20128;-73
2021/07/28 09:57:26;;;;;;;13.07;5.30;;;;;;;33.08;35.91;99866.34;5058968;28;20495;-73
2021/07/28 09:59:56;;;;;;;13.18;5.60;;;;;;;33.00;36.17;99862.91;5058821;28;20551;-73
2021/07/28 10:02:25;;;;;;;13.45;5.78;;;;;;;32.99;35.95;99861.22;5059314;28;20396;-73
2021/07/28 10:04:55;;;;;;;17.00;5.80;;;;;;;33.15;35.81;99861.50;5059027;28;20041;-73
2021/07/28 10:07:26;;;;;;;13.13;5.82;;;;;;;33.21;35.03;99858.59;5059168;28;20128;-73
2021/07/28 10:10:04;;;;;;;15.15;5.15;;;;;;;33.24;35.25;99858.09;5058770;28;20116;-74
2021/07/28 10:12:35;;;;;;;14.68;5.80;;;;;;;33.25;34.00;99856.16;5059158;28;20052;-74
2021/07/28 10:15:05;;;;;;;16.73;5.45;;;;;;;33.22;33.93;99851.13;5058100;28;20044;-73
2021/07/28 10:17:35;;;;;;;12.93;5.47;;;;;;;33.21;34.68;99843.94;5058431;28;20164;-74
2021/07/28 10:20:05;;;;;;;12.85;5.53;;;;;;;33.36;33.50;99835.09;5058996;28;20041;-73
2021/07/28 10:22:36;;;;;;;14.02;5.32;;;;;;;33.35;33.36;99838.91;5058633;28;20092;-73
2021/07/28 10:25:08;;;;;;;12.23;5.47;;;;;;;33.35;33.52;99839.75;5059337;28;20036;-74
2021/07/28 10:27:41;;;;;;;19.33;5.57;;;;;;;33.51;34.18;99838.94;5058868;28;20056;-73
2021/07/28 10:30:14;;;;;;;10.73;5.50;;;;;;;33.59;33.62;99835.75;5059054;28;20093;-73
2021/07/28 10:32:44;;;;;;;12.43;5.90;;;;;;;33.53;33.26;99825.69;5058713;28;20102;-73
2021/07/28 10:35:24;;;;;;;13.25;5.82;;;;;;;33.54;33.64;99827.38;5058800;28;20044;-73
2021/07/28 10:37:55;;;;;;;13.30;5.18;;;;;;;33.70;33.34;99831.22;5058685;28;20056;-73
2021/07/28 10:40:32;;;;;;;14.55;5.38;;;;;;;33.59;32.37;99819.16;5056435;28;20476;-73
2021/07/28 10:43:05;;;;;;;16.50;5.93;;;;;;;33.69;33.07;99823.19;5055677;28;20045;-74
2021/07/28 10:46:04;;;;;;;11.75;4.68;;;;;;;33.65;33.28;99827.53;5055600;28;20049;-74
2021/07/28 10:48:52;;;;;;;12.10;5.68;;;;;;;33.63;33.68;99824.19;5055542;28;20044;-73
2021/07/28 10:51:53;;;;;;;17.88;6.20;;;;;;;33.67;32.94;99820.63;5055519;28;20080;-73
2021/07/28 10:54:59;;;;;;;15.00;5.90;;;;;;;33.66;33.10;99818.13;5055578;28;20091;-74
2021/07/28 10:58:06;;;;;;;15.38;5.50;;;;;;;33.61;33.07;99818.06;5055193;28;20119;-73
2021/07/28 11:00:50;;;;;;;14.77;5.95;;;;;;;33.74;33.17;99814.94;5038204;28;20091;-73
2021/07/28 11:03:19;;;;;;;15.45;5.50;;;;;;;33.78;33.77;99805.03;5055091;28;20045;-73
2021/07/28 11:05:51;;;;;;;15.98;5.60;;;;;;;33.83;33.11;99805.09;5054929;28;20040;-73
2021/07/28 11:08:21;;;;;;;21.48;6.10;;;;;;;33.75;33.62;99800.00;5055195;28;20411;-74
2021/07/28 11:10:54;;;;;;;10.95;5.45;;;;;;;33.78;33.75;99802.25;5055237;28;20102;-74
2021/07/28 11:13:24;;;;;;;16.77;5.70;;;;;;;33.86;33.89;99788.00;5054992;28;20048;-73
2021/07/28 11:15:56;;;;;;;14.75;5.90;;;;;;;33.81;33.58;99787.94;5054893;28;20052;-74
2021/07/28 11:18:40;;;;;;;14.75;5.88;;;;;;;33.96;33.54;99792.84;5055021;28;20041;-74
2021/07/28 11:21:13;;;;;;;15.38;5.53;;;;;;;34.04;33.09;99793.25;5055187;28;20081;-73
2021/07/28 11:23:45;;;;;;;15.70;5.60;;;;;;;34.00;33.01;99791.28;5054880;28;20048;-73
2021/07/28 11:26:17;;;;;;;15.88;5.88;;;;;;;34.02;32.83;99784.38;5054841;28;20048;-73
2021/07/28 11:28:46;;;;;;;;;;;;;;;34.08;31.87;99788.88;5055037;28;20152;-73
2021/07/28 11:31:15;;;;;;;14.93;5.72;;;;;;;34.04;32.76;99782.19;5053646;28;20008;-73
2021/07/28 11:33:46;;;;;;;;;;;;;;;34.07;33.03;99783.63;5055189;28;20507;-73
2021/07/28 11:36:18;;;;;;;13.13;5.20;;;;;;;34.10;33.29;99775.63;5054763;28;19921;-73
2021/07/28 11:38:47;;;;;;;20.70;6.50;;;;;;;34.07;33.14;99776.16;5054377;28;20041;-74
2021/07/28 11:41:23;;;;;;;13.40;5.95;;;;;;;34.11;33.25;99771.75;5054411;28;20049;-74
2021/07/28 11:43:57;;;;;;;16.02;5.60;;;;;;;34.22;33.20;99763.59;5054210;28;20095;-74